sensor_id;sensor_type;location;lat;lon;timestamp;pressure;altitude;pressure_sealevel;temperature;humidity
39773;BME280;25451;51.960;6.250;2023-03-23T00:01:12;100112.75;;;12.55;77.09
39773;BME280;25451;51.960;6.250;2023-03-23T00:03:39;100121.88;;;12.55;77.05
39773;BME280;25451;51.960;6.250;2023-03-23T00:06:05;100106.13;;;12.56;77.14
39773;BME280;25451;51.960;6.250;2023-03-23T00:08:37;100107.22;;;12.55;76.99
39773;BME280;25451;51.960;6.250;2023-03-23T00:11:04;100118.28;;;12.55;76.82
39773;BME280;25451;51.960;6.250;2023-03-23T00:13:29;100121.88;;;12.55;77.14
39773;BME280;25451;51.960;6.250;2023-03-23T00:15:55;100105.84;;;12.52;76.97
39773;BME280;25451;51.960;6.250;2023-03-23T00:18:22;100109.97;;;12.55;76.94
39773;BME280;25451;51.960;6.250;2023-03-23T00:20:56;100088.13;;;12.53;76.83
39773;BME280;25451;51.960;6.250;2023-03-23T00:23:24;100100.88;;;12.54;77.08
39773;BME280;25451;51.960;6.250;2023-03-23T00:25:52;100097.25;;;12.54;77.09
39773;BME280;25451;51.960;6.250;2023-03-23T00:28:25;100095.31;;;12.54;76.80
39773;BME280;25451;51.960;6.250;2023-03-23T00:30:59;100102.50;;;12.55;77.06
39773;BME280;25451;51.960;6.250;2023-03-23T00:33:27;100111.94;;;12.54;77.16
39773;BME280;25451;51.960;6.250;2023-03-23T00:35:53;100100.03;;;12.54;77.03
39773;BME280;25451;51.960;6.250;2023-03-23T00:38:22;100088.41;;;12.52;76.88
39773;BME280;25451;51.960;6.250;2023-03-23T00:40:49;100095.31;;;12.54;76.89
39773;BME280;25451;51.960;6.250;2023-03-23T00:43:16;100098.09;;;12.54;76.80
39773;BME280;25451;51.960;6.250;2023-03-23T00:45:43;100111.94;;;12.54;76.61
39773;BME280;25451;51.960;6.250;2023-03-23T00:48:22;100112.47;;;12.51;76.62
39773;BME280;25451;51.960;6.250;2023-03-23T00:50:48;100116.91;;;12.52;76.89
39773;BME280;25451;51.960;6.250;2023-03-23T00:53:14;100103.63;;;12.54;76.88
39773;BME280;25451;51.960;6.250;2023-03-23T00:55:41;100100.03;;;12.54;76.82
39773;BME280;25451;51.960;6.250;2023-03-23T00:58:07;100108.88;;;12.56;76.67
39773;BME280;25451;51.960;6.250;2023-03-23T01:00:32;100094.19;;;12.55;76.64
39773;BME280;25451;51.960;6.250;2023-03-23T01:02:57;100094.75;;;12.57;76.57
39773;BME280;25451;51.960;6.250;2023-03-23T01:05:23;100084.81;;;12.56;76.90
39773;BME280;25451;51.960;6.250;2023-03-23T01:07:48;100080.06;;;12.57;76.76
39773;BME280;25451;51.960;6.250;2023-03-23T01:10:14;100099.75;;;12.55;76.63
39773;BME280;25451;51.960;6.250;2023-03-23T01:12:46;100086.19;;;12.54;76.60
39773;BME280;25451;51.960;6.250;2023-03-23T01:15:16;100088.13;;;12.58;76.66
39773;BME280;25451;51.960;6.250;2023-03-23T01:17:43;100067.63;;;12.59;76.52
39773;BME280;25451;51.960;6.250;2023-03-23T01:20:09;100073.44;;;12.58;76.69
39773;BME280;25451;51.960;6.250;2023-03-23T01:22:35;100074.84;;;12.60;76.40
39773;BME280;25451;51.960;6.250;2023-03-23T01:25:00;100070.13;;;12.61;76.40
39773;BME280;25451;51.960;6.250;2023-03-23T01:27:25;100065.41;;;12.61;76.80
39773;BME280;25451;51.960;6.250;2023-03-23T01:29:50;100070.97;;;12.61;76.42
39773;BME280;25451;51.960;6.250;2023-03-23T01:32:16;100071.25;;;12.60;76.48
39773;BME280;25451;51.960;6.250;2023-03-23T01:34:41;100090.03;;;12.63;76.38
39773;BME280;25451;51.960;6.250;2023-03-23T01:37:07;100100.31;;;12.62;76.16
39773;BME280;25451;51.960;6.250;2023-03-23T01:39:32;100083.41;;;12.64;76.53
39773;BME280;25451;51.960;6.250;2023-03-23T01:41:57;100033.88;;;12.62;76.39
39773;BME280;25451;51.960;6.250;2023-03-23T01:46:48;100014.22;;;12.64;76.13
39773;BME280;25451;51.960;6.250;2023-03-23T01:49:19;100010.34;;;12.60;76.32
39773;BME280;25451;51.960;6.250;2023-03-23T01:51:53;100013.38;;;12.63;76.36
39773;BME280;25451;51.960;6.250;2023-03-23T01:54:22;99992.34;;;12.62;76.59
39773;BME280;25451;51.960;6.250;2023-03-23T01:56:57;99984.84;;;12.63;76.56
39773;BME280;25451;51.960;6.250;2023-03-23T01:59:24;99978.50;;;12.62;76.24
39773;BME280;25451;51.960;6.250;2023-03-23T02:01:51;99981.53;;;12.61;76.78
39773;BME280;25451;51.960;6.250;2023-03-23T02:04:18;99985.13;;;12.61;76.28
39773;BME280;25451;51.960;6.250;2023-03-23T02:06:45;99987.91;;;12.61;76.43
39773;BME280;25451;51.960;6.250;2023-03-23T02:09:12;99991.78;;;12.60;76.22
39773;BME280;25451;51.960;6.250;2023-03-23T02:11:39;100005.63;;;12.60;76.38
39773;BME280;25451;51.960;6.250;2023-03-23T02:14:05;100003.13;;;12.59;76.27
39773;BME280;25451;51.960;6.250;2023-03-23T02:30:22;99989.03;;;12.55;76.46
39773;BME280;25451;51.960;6.250;2023-03-23T02:36:04;99978.53;;;12.52;76.33
39773;BME280;25451;51.960;6.250;2023-03-23T02:39:00;99971.84;;;12.53;76.37
39773;BME280;25451;51.960;6.250;2023-03-23T02:41:30;99961.34;;;12.50;76.56
39773;BME280;25451;51.960;6.250;2023-03-23T02:43:57;99964.69;;;12.52;76.47
39773;BME280;25451;51.960;6.250;2023-03-23T02:46:23;99963.56;;;12.53;76.20
39773;BME280;25451;51.960;6.250;2023-03-23T02:48:53;99967.16;;;12.54;76.27
39773;BME280;25451;51.960;6.250;2023-03-23T02:51:22;99968.00;;;12.54;76.66
39773;BME280;25451;51.960;6.250;2023-03-23T02:53:50;99970.75;;;12.54;76.62
39773;BME280;25451;51.960;6.250;2023-03-23T02:56:18;99976.31;;;12.54;76.29
39773;BME280;25451;51.960;6.250;2023-03-23T02:58:44;99967.44;;;12.52;76.56
39773;BME280;25451;51.960;6.250;2023-03-23T03:03:52;99964.38;;;12.54;76.42
39773;BME280;25451;51.960;6.250;2023-03-23T03:06:34;99970.75;;;12.54;76.58
39773;BME280;25451;51.960;6.250;2023-03-23T03:09:13;99960.78;;;12.53;76.36
39773;BME280;25451;51.960;6.250;2023-03-23T03:11:42;99964.09;;;12.55;76.35
39773;BME280;25451;51.960;6.250;2023-03-23T03:14:19;99973.25;;;12.56;76.47
39773;BME280;25451;51.960;6.250;2023-03-23T03:16:57;99961.91;;;12.52;76.42
39773;BME280;25451;51.960;6.250;2023-03-23T03:19:32;99972.13;;;12.57;76.45
39773;BME280;25451;51.960;6.250;2023-03-23T03:21:59;99972.41;;;12.55;76.39
39773;BME280;25451;51.960;6.250;2023-03-23T03:24:28;99975.44;;;12.59;76.56
39773;BME280;25451;51.960;6.250;2023-03-23T03:26:56;99971.88;;;12.58;76.38
39773;BME280;25451;51.960;6.250;2023-03-23T03:29:32;99968.81;;;12.60;76.14
39773;BME280;25451;51.960;6.250;2023-03-23T03:32:00;99966.03;;;12.60;76.71
39773;BME280;25451;51.960;6.250;2023-03-23T03:34:26;99964.13;;;12.60;76.18
39773;BME280;25451;51.960;6.250;2023-03-23T03:36:54;99960.22;;;12.61;76.61
39773;BME280;25451;51.960;6.250;2023-03-23T03:39:23;99962.16;;;12.61;76.29
39773;BME280;25451;51.960;6.250;2023-03-23T03:41:49;99967.44;;;12.62;76.47
39773;BME280;25451;51.960;6.250;2023-03-23T03:44:14;99968.25;;;12.63;76.57
39773;BME280;25451;51.960;6.250;2023-03-23T03:46:40;99959.69;;;12.64;76.20
39773;BME280;25451;51.960;6.250;2023-03-23T03:49:08;99961.59;;;12.64;76.33
39773;BME280;25451;51.960;6.250;2023-03-23T03:51:34;99960.47;;;12.65;76.42
39773;BME280;25451;51.960;6.250;2023-03-23T03:54:00;99972.41;;;12.65;76.14
39773;BME280;25451;51.960;6.250;2023-03-23T03:56:26;99974.63;;;12.68;76.48
39773;BME280;25451;51.960;6.250;2023-03-23T03:58:52;99970.72;;;12.69;76.21
39773;BME280;25451;51.960;6.250;2023-03-23T04:01:19;99967.13;;;12.69;76.24
39773;BME280;25451;51.960;6.250;2023-03-23T04:03:47;99950.78;;;12.67;76.19
39773;BME280;25451;51.960;6.250;2023-03-23T04:06:13;99965.19;;;12.69;76.05
39773;BME280;25451;51.960;6.250;2023-03-23T04:08:38;99960.19;;;12.71;76.08
39773;BME280;25451;51.960;6.250;2023-03-23T04:11:07;99957.16;;;12.73;76.11
39773;BME280;25451;51.960;6.250;2023-03-23T04:13:32;99960.19;;;12.71;76.09
39773;BME280;25451;51.960;6.250;2023-03-23T04:15:58;99958.28;;;12.72;76.17
39773;BME280;25451;51.960;6.250;2023-03-23T04:18:23;99955.50;;;12.72;76.01
39773;BME280;25451;51.960;6.250;2023-03-23T04:20:49;99969.06;;;12.73;76.41
39773;BME280;25451;51.960;6.250;2023-03-23T04:23:16;99960.75;;;12.73;76.09
39773;BME280;25451;51.960;6.250;2023-03-23T04:25:45;99956.34;;;12.72;76.57
39773;BME280;25451;51.960;6.250;2023-03-23T04:28:12;99957.97;;;12.73;76.30
39773;BME280;25451;51.960;6.250;2023-03-23T04:30:37;99969.06;;;12.73;76.41
39773;BME280;25451;51.960;6.250;2023-03-23T04:33:02;99963.53;;;12.73;76.27
39773;BME280;25451;51.960;6.250;2023-03-23T04:35:28;99966.84;;;12.75;76.31
39773;BME280;25451;51.960;6.250;2023-03-23T04:37:55;99969.91;;;12.74;76.15
39773;BME280;25451;51.960;6.250;2023-03-23T04:40:21;99969.31;;;12.77;75.99
39773;BME280;25451;51.960;6.250;2023-03-23T04:42:46;99974.59;;;12.73;76.31
39773;BME280;25451;51.960;6.250;2023-03-23T04:45:15;99971.28;;;12.76;76.35
39773;BME280;25451;51.960;6.250;2023-03-23T04:47:41;99979.31;;;12.78;75.99
39773;BME280;25451;51.960;6.250;2023-03-23T04:50:11;99976.53;;;12.78;76.07
39773;BME280;25451;51.960;6.250;2023-03-23T04:52:39;99977.38;;;12.78;76.27
39773;BME280;25451;51.960;6.250;2023-03-23T04:55:06;99983.72;;;12.79;76.11
39773;BME280;25451;51.960;6.250;2023-03-23T04:57:32;99985.69;;;12.78;76.34
39773;BME280;25451;51.960;6.250;2023-03-23T04:59:58;99991.78;;;12.80;76.27
39773;BME280;25451;51.960;6.250;2023-03-23T05:02:23;99980.16;;;12.78;76.09
39773;BME280;25451;51.960;6.250;2023-03-23T05:04:50;99988.44;;;12.78;76.27
39773;BME280;25451;51.960;6.250;2023-03-23T05:07:16;99997.31;;;12.80;75.95
39773;BME280;25451;51.960;6.250;2023-03-23T05:09:41;100003.41;;;12.82;75.90
39773;BME280;25451;51.960;6.250;2023-03-23T05:12:09;99993.41;;;12.81;75.91
39773;BME280;25451;51.960;6.250;2023-03-23T05:14:35;99998.66;;;12.83;76.27
39773;BME280;25451;51.960;6.250;2023-03-23T05:17:01;100004.50;;;12.81;76.22
39773;BME280;25451;51.960;6.250;2023-03-23T05:19:26;100008.09;;;12.82;76.10
39773;BME280;25451;51.960;6.250;2023-03-23T05:21:53;99997.84;;;12.82;76.01
39773;BME280;25451;51.960;6.250;2023-03-23T05:24:19;100000.06;;;12.80;76.09
39773;BME280;25451;51.960;6.250;2023-03-23T05:26:44;100002.56;;;12.82;75.97
39773;BME280;25451;51.960;6.250;2023-03-23T05:29:13;99990.94;;;12.80;76.17
39773;BME280;25451;51.960;6.250;2023-03-23T05:31:38;99993.41;;;12.81;76.28
39773;BME280;25451;51.960;6.250;2023-03-23T05:34:05;99997.31;;;12.80;75.94
39773;BME280;25451;51.960;6.250;2023-03-23T05:36:30;100002.84;;;12.80;76.06
39773;BME280;25451;51.960;6.250;2023-03-23T05:38:55;100012.25;;;12.79;76.05
39773;BME280;25451;51.960;6.250;2023-03-23T05:41:22;100004.50;;;12.76;76.15
39773;BME280;25451;51.960;6.250;2023-03-23T05:43:48;100003.38;;;12.77;75.84
39773;BME280;25451;51.960;6.250;2023-03-23T05:46:13;100007.28;;;12.76;76.20
39773;BME280;25451;51.960;6.250;2023-03-23T05:48:39;100006.19;;;12.72;75.98
39773;BME280;25451;51.960;6.250;2023-03-23T05:51:05;100004.50;;;12.71;76.08
39773;BME280;25451;51.960;6.250;2023-03-23T05:53:30;100012.28;;;12.74;76.01
39773;BME280;25451;51.960;6.250;2023-03-23T05:56:00;100010.59;;;12.73;76.10
39773;BME280;25451;51.960;6.250;2023-03-23T05:58:26;100005.63;;;12.70;75.67
39773;BME280;25451;51.960;6.250;2023-03-23T06:00:51;100007.81;;;12.73;75.74
39773;BME280;25451;51.960;6.250;2023-03-23T06:03:16;100023.59;;;12.73;75.86
39773;BME280;25451;51.960;6.250;2023-03-23T06:05:43;100006.19;;;12.72;75.77
39773;BME280;25451;51.960;6.250;2023-03-23T06:08:09;100006.72;;;12.69;75.82
39773;BME280;25451;51.960;6.250;2023-03-23T06:10:34;100021.69;;;12.68;75.69
39773;BME280;25451;51.960;6.250;2023-03-23T06:13:01;100019.47;;;12.70;75.83
39773;BME280;25451;51.960;6.250;2023-03-23T06:15:26;100013.38;;;12.68;75.72
39773;BME280;25451;51.960;6.250;2023-03-23T06:17:54;100026.66;;;12.71;75.80
39773;BME280;25451;51.960;6.250;2023-03-23T06:20:21;100027.78;;;12.70;75.63
39773;BME280;25451;51.960;6.250;2023-03-23T06:22:47;100027.50;;;12.72;75.70
39773;BME280;25451;51.960;6.250;2023-03-23T06:25:12;100039.41;;;12.72;75.71
39773;BME280;25451;51.960;6.250;2023-03-23T06:27:38;100029.72;;;12.70;75.48
39773;BME280;25451;51.960;6.250;2023-03-23T06:30:04;100031.91;;;12.73;75.61
39773;BME280;25451;51.960;6.250;2023-03-23T06:32:31;100038.28;;;12.73;75.14
39773;BME280;25451;51.960;6.250;2023-03-23T06:34:57;100039.13;;;12.74;75.15
39773;BME280;25451;51.960;6.250;2023-03-23T06:37:22;100041.59;;;12.75;75.49
39773;BME280;25451;51.960;6.250;2023-03-23T06:39:49;100050.47;;;12.77;75.56
39773;BME280;25451;51.960;6.250;2023-03-23T06:42:14;100037.19;;;12.74;75.17
39773;BME280;25451;51.960;6.250;2023-03-23T06:44:40;100042.16;;;12.77;75.21
39773;BME280;25451;51.960;6.250;2023-03-23T06:47:05;100033.84;;;12.77;75.40
39773;BME280;25451;51.960;6.250;2023-03-23T06:49:32;100049.63;;;12.82;75.42
39773;BME280;25451;51.960;6.250;2023-03-23T06:51:58;100053.25;;;12.82;75.09
39773;BME280;25451;51.960;6.250;2023-03-23T06:54:25;100059.34;;;12.84;75.09
39773;BME280;25451;51.960;6.250;2023-03-23T06:56:51;100057.91;;;12.87;75.34
39773;BME280;25451;51.960;6.250;2023-03-23T06:59:16;100067.63;;;12.89;74.99
39773;BME280;25451;51.960;6.250;2023-03-23T07:01:42;100064.59;;;12.91;74.90
39773;BME280;25451;51.960;6.250;2023-03-23T07:04:07;100058.78;;;12.92;74.99
39773;BME280;25451;51.960;6.250;2023-03-23T07:06:32;100065.16;;;12.93;74.80
39773;BME280;25451;51.960;6.250;2023-03-23T07:08:58;100068.47;;;12.95;74.93
39773;BME280;25451;51.960;6.250;2023-03-23T07:11:23;100064.84;;;12.94;75.15
39773;BME280;25451;51.960;6.250;2023-03-23T07:13:49;100077.03;;;12.98;74.84
39773;BME280;25451;51.960;6.250;2023-03-23T07:16:15;100067.34;;;13.01;75.03
39773;BME280;25451;51.960;6.250;2023-03-23T07:18:42;100072.59;;;13.02;75.01
39773;BME280;25451;51.960;6.250;2023-03-23T07:21:07;100080.06;;;13.02;74.86
39773;BME280;25451;51.960;6.250;2023-03-23T07:23:32;100070.66;;;13.03;74.90
39773;BME280;25451;51.960;6.250;2023-03-23T07:25:58;100091.19;;;13.07;75.00
39773;BME280;25451;51.960;6.250;2023-03-23T07:28:23;100091.19;;;13.07;75.14
39773;BME280;25451;51.960;6.250;2023-03-23T07:30:48;100086.47;;;13.07;74.89
39773;BME280;25451;51.960;6.250;2023-03-23T07:33:13;100099.22;;;13.08;74.87
39773;BME280;25451;51.960;6.250;2023-03-23T07:35:39;100104.47;;;13.10;74.87
39773;BME280;25451;51.960;6.250;2023-03-23T07:38:05;100108.09;;;13.10;74.91
39773;BME280;25451;51.960;6.250;2023-03-23T07:40:32;100112.50;;;13.11;75.18
39773;BME280;25451;51.960;6.250;2023-03-23T07:43:02;100114.47;;;13.11;74.87
39773;BME280;25451;51.960;6.250;2023-03-23T07:45:29;100110.28;;;13.13;74.94
39773;BME280;25451;51.960;6.250;2023-03-23T07:47:55;100114.19;;;13.12;74.99
39773;BME280;25451;51.960;6.250;2023-03-23T07:50:21;100115.28;;;13.11;75.33
39773;BME280;25451;51.960;6.250;2023-03-23T07:52:49;100117.50;;;13.09;75.10
39773;BME280;25451;51.960;6.250;2023-03-23T07:55:16;100112.78;;;13.10;75.12
39773;BME280;25451;51.960;6.250;2023-03-23T07:57:45;100108.63;;;13.07;75.41
39773;BME280;25451;51.960;6.250;2023-03-23T08:00:12;100110.84;;;13.05;75.52
39773;BME280;25451;51.960;6.250;2023-03-23T08:02:41;100132.72;;;13.02;75.57
39773;BME280;25451;51.960;6.250;2023-03-23T08:05:07;100134.94;;;13.00;75.59
39773;BME280;25451;51.960;6.250;2023-03-23T08:07:33;100134.66;;;12.96;75.75
39773;BME280;25451;51.960;6.250;2023-03-23T08:09:59;100134.38;;;12.98;75.74
39773;BME280;25451;51.960;6.250;2023-03-23T08:12:24;100137.16;;;12.98;75.84
39773;BME280;25451;51.960;6.250;2023-03-23T08:14:50;100131.88;;;12.96;75.91
39773;BME280;25451;51.960;6.250;2023-03-23T08:17:16;100137.97;;;12.98;75.70
39773;BME280;25451;51.960;6.250;2023-03-23T08:19:41;100143.53;;;12.98;75.77
39773;BME280;25451;51.960;6.250;2023-03-23T08:22:08;100137.97;;;12.98;75.97
39773;BME280;25451;51.960;6.250;2023-03-23T08:24:33;100138.81;;;12.99;76.06
39773;BME280;25451;51.960;6.250;2023-03-23T08:26:59;100154.03;;;13.01;76.01
39773;BME280;25451;51.960;6.250;2023-03-23T08:29:25;100144.91;;;13.01;75.93
39773;BME280;25451;51.960;6.250;2023-03-23T08:31:51;100150.16;;;13.02;76.22
39773;BME280;25451;51.960;6.250;2023-03-23T08:34:16;100144.63;;;13.02;75.80
39773;BME280;25451;51.960;6.250;2023-03-23T08:36:42;100140.72;;;13.03;76.16
39773;BME280;25451;51.960;6.250;2023-03-23T08:39:09;100141.59;;;13.04;76.24
39773;BME280;25451;51.960;6.250;2023-03-23T08:41:35;100153.53;;;13.04;76.39
39773;BME280;25451;51.960;6.250;2023-03-23T08:44:00;100160.72;;;13.05;76.25
39773;BME280;25451;51.960;6.250;2023-03-23T08:46:25;100162.09;;;13.08;76.13
39773;BME280;25451;51.960;6.250;2023-03-23T08:48:50;100162.66;;;13.10;76.00
39773;BME280;25451;51.960;6.250;2023-03-23T08:51:16;100168.75;;;13.12;76.36
39773;BME280;25451;51.960;6.250;2023-03-23T08:53:41;100166.81;;;13.12;76.31
39773;BME280;25451;51.960;6.250;2023-03-23T08:56:09;100166.25;;;13.15;76.08
39773;BME280;25451;51.960;6.250;2023-03-23T08:58:36;100164.59;;;13.14;76.59
39773;BME280;25451;51.960;6.250;2023-03-23T09:01:03;100166.56;;;13.19;76.34
39773;BME280;25451;51.960;6.250;2023-03-23T09:03:30;100158.25;;;13.19;76.22
39773;BME280;25451;51.960;6.250;2023-03-23T09:06:03;100170.16;;;13.24;76.17
39773;BME280;25451;51.960;6.250;2023-03-23T09:08:30;100170.69;;;13.26;76.37
39773;BME280;25451;51.960;6.250;2023-03-23T09:10:59;100184.56;;;13.32;76.28
39773;BME280;25451;51.960;6.250;2023-03-23T09:13:24;100184.56;;;13.32;75.81
39773;BME280;25451;51.960;6.250;2023-03-23T09:15:50;100185.66;;;13.36;76.07
39773;BME280;25451;51.960;6.250;2023-03-23T09:18:16;100185.66;;;13.41;75.98
39773;BME280;25451;51.960;6.250;2023-03-23T09:20:42;100199.22;;;13.42;76.13
39773;BME280;25451;51.960;6.250;2023-03-23T09:23:08;100175.69;;;13.40;76.07
39773;BME280;25451;51.960;6.250;2023-03-23T09:25:33;100176.50;;;13.45;76.04
39773;BME280;25451;51.960;6.250;2023-03-23T09:27:59;100174.56;;;13.46;75.71
39773;BME280;25451;51.960;6.250;2023-03-23T09:30:27;100186.22;;;13.48;75.92
39773;BME280;25451;51.960;6.250;2023-03-23T09:32:53;100191.47;;;13.49;75.98
39773;BME280;25451;51.960;6.250;2023-03-23T09:35:19;100205.59;;;13.53;75.69
39773;BME280;25451;51.960;6.250;2023-03-23T09:37:48;100199.22;;;13.52;75.69
39773;BME280;25451;51.960;6.250;2023-03-23T09:40:18;100190.06;;;13.57;75.70
39773;BME280;25451;51.960;6.250;2023-03-23T09:43:05;100197.81;;;13.55;75.48
39773;BME280;25451;51.960;6.250;2023-03-23T09:50:34;100202.81;;;13.63;75.42
39773;BME280;25451;51.960;6.250;2023-03-23T09:53:07;100197.81;;;13.65;75.45
39773;BME280;25451;51.960;6.250;2023-03-23T09:55:34;100193.66;;;13.67;75.09
39773;BME280;25451;51.960;6.250;2023-03-23T09:58:16;100206.41;;;13.73;75.21
39773;BME280;25451;51.960;6.250;2023-03-23T10:00:46;100198.88;;;13.79;75.08
39773;BME280;25451;51.960;6.250;2023-03-23T10:03:15;100192.22;;;13.85;74.99
39773;BME280;25451;51.960;6.250;2023-03-23T10:05:49;100208.28;;;13.98;74.89
39773;BME280;25451;51.960;6.250;2023-03-23T10:11:03;100207.06;;;14.24;74.36
39773;BME280;25451;51.960;6.250;2023-03-23T10:15:57;100210.03;;;14.53;74.00
39773;BME280;25451;51.960;6.250;2023-03-23T10:21:02;100218.47;;;14.81;73.81
39773;BME280;25451;51.960;6.250;2023-03-23T10:23:38;100218.91;;;14.98;73.76
39773;BME280;25451;51.960;6.250;2023-03-23T10:28:58;100222.03;;;15.31;73.42
39773;BME280;25451;51.960;6.250;2023-03-23T10:31:33;100226.94;;;15.44;73.11
39773;BME280;25451;51.960;6.250;2023-03-23T10:37:13;100225.56;;;15.70;72.84
39773;BME280;25451;51.960;6.250;2023-03-23T10:39:56;100227.16;;;15.81;72.89
39773;BME280;25451;51.960;6.250;2023-03-23T10:42:26;100227.28;;;15.95;72.86
39773;BME280;25451;51.960;6.250;2023-03-23T10:44:53;100225.53;;;16.04;72.79
39773;BME280;25451;51.960;6.250;2023-03-23T10:47:18;100228.13;;;16.19;72.66
39773;BME280;25451;51.960;6.250;2023-03-23T10:49:56;100239.97;;;16.29;72.52
39773;BME280;25451;51.960;6.250;2023-03-23T10:55:05;100234.44;;;16.48;72.05
39773;BME280;25451;51.960;6.250;2023-03-23T10:57:33;100227.13;;;16.57;71.95
39773;BME280;25451;51.960;6.250;2023-03-23T11:00:02;100238.94;;;16.68;71.82
39773;BME280;25451;51.960;6.250;2023-03-23T11:02:35;100236.06;;;16.78;71.70
39773;BME280;25451;51.960;6.250;2023-03-23T11:05:06;100242.59;;;16.87;71.47
39773;BME280;25451;51.960;6.250;2023-03-23T11:07:35;100249.19;;;16.96;71.34
39773;BME280;25451;51.960;6.250;2023-03-23T11:10:14;100248.56;;;16.99;71.22
39773;BME280;25451;51.960;6.250;2023-03-23T11:12:44;100249.03;;;17.06;71.00
39773;BME280;25451;51.960;6.250;2023-03-23T11:15:34;100249.84;;;17.06;70.76
39773;BME280;25451;51.960;6.250;2023-03-23T11:18:05;100252.88;;;17.10;70.55
39773;BME280;25451;51.960;6.250;2023-03-23T11:20:35;100249.47;;;17.13;70.69
39773;BME280;25451;51.960;6.250;2023-03-23T11:25:59;100245.25;;;17.34;70.62
39773;BME280;25451;51.960;6.250;2023-03-23T11:28:51;100245.13;;;17.39;70.35
39773;BME280;25451;51.960;6.250;2023-03-23T11:31:15;100255.03;;;17.50;70.35
39773;BME280;25451;51.960;6.250;2023-03-23T11:34:36;100256.00;;;17.59;70.10
39773;BME280;25451;51.960;6.250;2023-03-23T11:36:39;100255.94;;;17.64;69.79
39773;BME280;25451;51.960;6.250;2023-03-23T11:39:28;100260.28;;;17.70;69.20
39773;BME280;25451;51.960;6.250;2023-03-23T11:41:55;100261.97;;;17.71;68.97
39773;BME280;25451;51.960;6.250;2023-03-23T11:44:23;100268.34;;;17.72;68.81
39773;BME280;25451;51.960;6.250;2023-03-23T11:46:57;100270.34;;;17.71;68.51
39773;BME280;25451;51.960;6.250;2023-03-23T11:49:42;100260.28;;;17.70;68.25
39773;BME280;25451;51.960;6.250;2023-03-23T11:54:50;100262.94;;;17.62;68.21
39773;BME280;25451;51.960;6.250;2023-03-23T11:57:17;100258.41;;;17.66;67.99
39773;BME280;25451;51.960;6.250;2023-03-23T11:59:43;100255.53;;;17.71;68.07
39773;BME280;25451;51.960;6.250;2023-03-23T12:10:40;100259.50;;;17.83;67.35
39773;BME280;25451;51.960;6.250;2023-03-23T12:18:24;100238.63;;;17.94;67.16
39773;BME280;25451;51.960;6.250;2023-03-23T12:23:52;100249.72;;;17.99;66.79
39773;BME280;25451;51.960;6.250;2023-03-23T12:26:23;100248.69;;;17.95;66.48
39773;BME280;25451;51.960;6.250;2023-03-23T12:29:12;100252.59;;;17.94;66.59
39773;BME280;25451;51.960;6.250;2023-03-23T12:31:52;100245.56;;;17.97;66.56
39773;BME280;25451;51.960;6.250;2023-03-23T12:36:57;100249.09;;;18.02;66.25
39773;BME280;25451;51.960;6.250;2023-03-23T12:42:52;100243.63;;;18.11;66.11
39773;BME280;25451;51.960;6.250;2023-03-23T12:48:28;100237.13;;;18.15;65.49
39773;BME280;25451;51.960;6.250;2023-03-23T12:51:12;100222.00;;;18.16;65.40
39773;BME280;25451;51.960;6.250;2023-03-23T12:56:23;100224.28;;;18.14;65.23
39773;BME280;25451;51.960;6.250;2023-03-23T12:58:59;100226.03;;;18.10;65.12
39773;BME280;25451;51.960;6.250;2023-03-23T13:01:31;100214.34;;;18.08;65.10
39773;BME280;25451;51.960;6.250;2023-03-23T13:04:04;100208.88;;;18.03;64.80
39773;BME280;25451;51.960;6.250;2023-03-23T13:06:35;100210.63;;;17.99;64.86
39773;BME280;25451;51.960;6.250;2023-03-23T13:11:42;100201.81;;;17.92;64.79
39773;BME280;25451;51.960;6.250;2023-03-23T13:16:49;100180.72;;;17.86;64.63
39773;BME280;25451;51.960;6.250;2023-03-23T13:22:04;100192.59;;;17.78;64.31
39773;BME280;25451;51.960;6.250;2023-03-23T13:24:33;100203.88;;;17.73;64.41
39773;BME280;25451;51.960;6.250;2023-03-23T13:27:00;100201.97;;;17.69;63.89
39773;BME280;25451;51.960;6.250;2023-03-23T13:29:26;100206.13;;;17.71;63.82
39773;BME280;25451;51.960;6.250;2023-03-23T13:32:10;100208.41;;;17.69;63.62
39773;BME280;25451;51.960;6.250;2023-03-23T13:34:37;100207.88;;;17.67;63.73
39773;BME280;25451;51.960;6.250;2023-03-23T13:37:09;100221.84;;;17.67;63.52
39773;BME280;25451;51.960;6.250;2023-03-23T13:39:55;100222.44;;;17.64;63.56
39773;BME280;25451;51.960;6.250;2023-03-23T13:42:29;100223.06;;;17.61;63.46
39773;BME280;25451;51.960;6.250;2023-03-23T13:47:41;100244.94;;;17.54;63.33
39773;BME280;25451;51.960;6.250;2023-03-23T13:57:58;100253.66;;;17.29;63.95
39773;BME280;25451;51.960;6.250;2023-03-23T14:00:48;100250.75;;;17.20;63.97
39773;BME280;25451;51.960;6.250;2023-03-23T14:03:47;100239.16;;;17.13;64.56
39773;BME280;25451;51.960;6.250;2023-03-23T14:06:19;100227.78;;;17.10;64.75
39773;BME280;25451;51.960;6.250;2023-03-23T14:08:50;100231.47;;;17.05;64.96
39773;BME280;25451;51.960;6.250;2023-03-23T14:11:26;100236.81;;;17.02;65.49
39773;BME280;25451;51.960;6.250;2023-03-23T14:14:07;100233.78;;;16.98;65.34
39773;BME280;25451;51.960;6.250;2023-03-23T14:16:43;100238.84;;;16.96;65.65
39773;BME280;25451;51.960;6.250;2023-03-23T14:19:25;100241.09;;;16.94;65.75
39773;BME280;25451;51.960;6.250;2023-03-23T14:21:55;100222.41;;;16.95;65.84
39773;BME280;25451;51.960;6.250;2023-03-23T14:24:29;100208.78;;;16.93;65.96
39773;BME280;25451;51.960;6.250;2023-03-23T14:27:09;100221.88;;;16.93;66.14
39773;BME280;25451;51.960;6.250;2023-03-23T14:29:35;100234.41;;;16.95;66.13
39773;BME280;25451;51.960;6.250;2023-03-23T14:32:01;100247.50;;;16.95;66.30
39773;BME280;25451;51.960;6.250;2023-03-23T14:34:29;100235.81;;;16.93;66.31
39773;BME280;25451;51.960;6.250;2023-03-23T14:36:57;100226.88;;;16.96;66.32